• Join FlightAware (Why Join?)
  • Login
  • US Flag 
07:37AM EDT


 

Airport Tracker/Info


-or-


 

Live Flight TrackerFlight Track Log ✈ SWA755 ✈ 14-Jul-2013 ✈ KSFO - KSAN

Flight Track Log - Related Links

Times and Time Zones

All times are in EDT time to prevent confusion due to time zone crossing. See the SWA755 flight status page for this flight to view local times or setup timezone preferences in your user account.

Time Position Orientation Groundspeed Altitude Reporting Facility
EDT Latitude Longitude Course Direction KTS MPH feet Rate Location/Type
06:42PM 37.6333 -122.3667 360° North 159 183 1,000  Level Northern Cal TRACON
06:43PM 37.7000 -122.3667 360° North 232 267 2,400 1,680 Climbing Northern Cal TRACON
06:44PM 37.7333 -122.4167 310° West 260 299 4,400 2,520 Climbing Northern Cal TRACON
06:46PM 37.5964 -122.5581 219° Southwest 278 320 10,900 2,820 Climbing Oakland Center
06:47PM 37.4900 -122.5828 190° South 335 386 13,900 2,640 Climbing Oakland Center
06:48PM 37.3950 -122.5803 179° South 341 392 16,400 2,340 Climbing Oakland Center
06:49PM 37.2950 -122.5778 179° South 358 412 18,700 2,040 Climbing Oakland Center
06:50PM 37.1928 -122.5758 179° South 368 423 20,700 1,800 Climbing Oakland Center
06:51PM 37.0969 -122.5189 155° Southeast 396 456 22,500 1,560 Climbing Oakland Center
06:52PM 37.0056 -122.4392 145° Southeast 400 460 24,000 1,620 Climbing Oakland Center
06:53PM 36.9117 -122.3531 144° Southeast 417 480 25,900 1,620 Climbing Oakland Center
06:54PM 36.8181 -122.2686 144° Southeast 416 479 27,400 1,440 Climbing Oakland Center
06:55PM 36.7014 -122.1647 144° Southeast 428 493 28,900 1,620 Climbing Oakland Center
06:56PM 36.6014 -122.0775 145° Southeast 437 503 30,800 1,680 Climbing Oakland Center
06:57PM 36.5081 -121.9919 144° Southeast 423 487 32,400 1,380 Climbing Oakland Center
06:58PM 36.4264 -121.8906 135° Southeast 415 478 33,700 1,320 Climbing Oakland Center
06:59PM 36.3456 -121.7683 129° Southeast 421 484 35,200 1,260 Climbing Oakland Center
07:00PM 36.2722 -121.6572 129° Southeast 417 480 36,300 780 Climbing Oakland Center
07:01PM 36.1953 -121.5514 132° Southeast 414 476 36,900 300 Climbing Oakland Center
07:02PM 36.1189 -121.4386 130° Southeast 426 490 37,000  Climbing Oakland Center
07:03PM 36.0403 -121.3272 131° Southeast 429 494 37,000 -60 Level Oakland Center
07:04PM 35.9642 -121.2156 130° Southeast 427 491 36,900 -60 Descending Oakland Center
07:05PM 35.8878 -121.1078 131° Southeast 419 482 36,900  Level Oakland Center
07:06PM 35.7975 -120.9794 131° Southeast 416 479 37,000  Climbing Oakland Center
07:07PM 35.7219 -120.8731 131° Southeast 413 475 37,000  Level Oakland Center
07:08PM 35.6478 -120.7661 130° Southeast 413 475 37,000  Level Oakland Center
07:10PM 35.5717 -120.6606 132° Southeast 413 475 37,000  Level Oakland Center
07:11PM 35.4969 -120.5544 131° Southeast 414 476 37,000  Level Oakland Center
07:12PM 35.4161 -120.4389 131° Southeast 415 478 37,000  Level Oakland Center
07:13PM 35.3389 -120.3308 131° Southeast 420 483 37,000  Level Oakland Center
07:14PM 35.2619 -120.2258 132° Southeast 416 479 37,000  Level Oakland Center
07:15PM 35.1853 -120.1189 131° Southeast 411 473 37,000 -60 Level Oakland Center
07:16PM 35.1103 -120.0150 131° Southeast 410 472 36,900 -120 Descending Oakland Center
07:16PM 35.0811 -119.9747 131° Southeast 407 468 36,900 60 Level Los Angeles Center
07:17PM 35.0042 -119.8706 132° Southeast 411 473 37,000  Climbing Los Angeles Center
07:18PM 34.8978 -119.7247 132° Southeast 411 473 37,000  Level Los Angeles Center
07:19PM 34.8364 -119.6417 132° Southeast 413 475 37,000  Level Los Angeles Center
07:20PM 34.7450 -119.5175 132° Southeast 411 473 37,000  Level Los Angeles Center
07:21PM 34.6689 -119.4114 131° Southeast 414 476 37,000  Level Los Angeles Center
07:22PM 34.5994 -119.3194 133° Southeast 417 480 37,000  Level Los Angeles Center
07:24PM 34.5047 -119.1939 132° Southeast 420 483 37,000  Level Los Angeles Center
07:25PM 34.4283 -119.0908 132° Southeast 415 478 37,000  Level Los Angeles Center
07:26PM 34.3508 -118.9892 133° Southeast 412 474 37,000  Level Los Angeles Center
07:27PM 34.2756 -118.8867 132° Southeast 408 470 37,000 -480 Level Los Angeles Center
07:28PM 34.1822 -118.7636 132° Southeast 412 474 36,100 -840 Descending Los Angeles Center
07:29PM 34.1031 -118.6578 132° Southeast 423 487 35,300 -720 Descending Los Angeles Center
07:30PM 34.0381 -118.5719 132° Southeast 430 495 34,600 -900 Descending Los Angeles Center
07:31PM 33.9394 -118.4408 132° Southeast 439 505 33,500 -1,020 Descending Los Angeles Center
07:32PM 33.8569 -118.3325 133° Southeast 434 499 32,500 -1,080 Descending Los Angeles Center
07:33PM 33.7706 -118.2258 134° Southeast 425 489 31,300 -1,380 Descending Los Angeles Center
07:34PM 33.7447 -118.0828 102° East 431 496 29,700 -1,800 Descending Los Angeles Center
07:35PM 33.6917 -117.9697 119° Southeast 404 465 27,700 -2,040 Descending Los Angeles Center
07:36PM 33.5722 -117.9264 163° South 366 421 25,600 -1,860 Descending Los Angeles Center
07:37PM 33.4853 -117.8611 148° Southeast 375 432 23,900 -1,680 Descending Los Angeles Center
07:38PM 33.4136 -117.7719 134° Southeast 372 428 22,200 -1,800 Descending Los Angeles Center
07:39PM 33.3422 -117.6822 134° Southeast 371 427 20,200 -1,980 Descending Los Angeles Center
07:40PM 33.2753 -117.5964 133° Southeast 357 411 18,100 -1,920 Descending Los Angeles Center
07:41PM 33.2019 -117.5250 141° Southeast 339 390 16,200 -1,500 Descending Los Angeles Center
07:42PM 33.1231 -117.4686 149° Southeast 333 383 15,000 -1,200 Descending Los Angeles Center
07:43PM 33.0300 -117.4025 149° Southeast 325 374 13,800 -1,440 Descending Los Angeles Center
07:44PM 32.9533 -117.3475 149° Southeast 323 372 12,100 -1,860 Descending Los Angeles Center
07:45PM 32.8831 -117.2939 147° Southeast 307 353 10,000 -1,860 Descending Los Angeles Center
07:46PM 32.8517 -117.2064 113° Southeast 280 322 8,300 -2,040 Descending Los Angeles Center
07:47PM 32.8178 -117.1106 113° Southeast 274 315 5,900 -1,620 Descending Los Angeles Center
07:48PM 32.7864 -117.0294 115° Southeast 272 313 5,000 -540 Descending Los Angeles Center
07:49PM 32.7269 -116.9989 157° South 247 284 4,800 -540 Descending Los Angeles Center
07:50PM 32.6839 -117.0264 208° Southwest 244 281 4,000 -1,320 Descending Los Angeles Center
07:52PM 32.7167 -117.1000 298° West 145 167 2,000 -1,560 Descending Southern California TRACON
07:53PM 32.7167 -117.1500 270° West 134 154 700 -960 Descending Southern California TRACON
07:54PM 32.7308 -117.1822 298° West 136 157 200 -540 Descending Los Angeles Center